Lake Suzy, Florida
Current Conditions -  °F | °C
As of 3:53 AM on Monday 24 Nov 2014 (Local Time) from KPGD Reporting Station
Overcast Overcast  
Wind Chill: 76°   Ceiling: 500
Heat Index: 76°   Visibility: 7mi
Dew Point: 74°   Wind: 9mph
Humidity: 94%   Direction: 180°S
Pressure: 29.94"   Gusts: NA
Location:  27.0717°N, 81.9802°W
Report Text: KPGD 240853Z AUTO 18008KT 7SM OVC005 24/23 A2994 RMK AO2 SLP140 T02440233 55001 $
Loading
Personal Weather Stations






























Interactive Weather Map New forecast layout! Learn more

10-Day Weather Forecast

Advertisements
Track Severe Weather on mobile